Aviation Digital Data Service (ADDS)

Output produced by TAFs form (1216 UTC 28 March 2015)
found at http://aviationweather.gov/adds/tafs/
 
KGUP 281141Z 2812/2912 VRB04KT P6SM SKC 
     FM281700 24008KT P6SM SKC 
     FM281900 26012G22KT P6SM SKC 
     FM290200 VRB03KT P6SM SKC